Alamo, Nevada Weather observations

Data are for observation ending at time listed.
 Day   Time    Ave.   Ave.  Ave.  Vector   Max.   Stn.    Total    Solar   Ave.  
  of    of     Air    Rel.  Wind   Wind    Wind   Baro.  Precip.   Rad.    Soil  
Year   Day     Temp.  Hum.  Speed  Dir.    Gust   Pres.                    Temp. 
2016   (PST)    F      %     mph   deg.    mph     mb.     in.     W/m2     F   
------------------------------------------------------------------------------
 269    8:00   64.5    29    4.1   334      7.6   907.5    0.00      36    63.4
 269    8:10   65.1    27    4.7   353      9.7   907.5    0.00      36    63.5
 269    8:20   65.8    28    3.4   343      6.3   907.5    0.00      73    63.6
 269    8:30   66.6    27    4.7   333      8.9   907.4    0.00      67    63.7
 269    8:40   67.4    27    4.5   343     10.2   907.4    0.00      34    63.8
 269    8:50   68.2    26    4.7   343     11.8   907.4    0.00      84    63.9
 269    9:00   68.8    25    5.5   338     12.0   907.4    0.00     266    64.0
 269    9:10   69.5    25    4.5   347      9.6   907.4    0.00      67    64.2
 269    9:20   70.4    24    4.2   342      7.2   907.3    0.00     137    64.3
 269    9:30   70.6    24    4.1   336     10.3   907.2    0.00      41    64.4
 269    9:40   71.2    23    4.8   311      8.5   907.1    0.00      40    64.6
 269    9:50   72.2    23    4.5   317     10.7   907.0    0.00      40    64.7
 269   10:00   72.7    21    3.9   337      8.0   906.9    0.00      41    64.9
 269   10:10   72.9    21    3.2   341      7.2   906.7    0.00      41    65.1
 269   10:20   73.6    20    3.2   307      9.2   906.5    0.00      40    65.4
 269   10:30   74.0    21    2.6   315      6.2   906.4    0.00      42    66.1
 269   10:40   74.3    19    2.5    40      5.8   906.2    0.00      41    67.3
 269   10:50   75.0    19    1.3   156      4.4   906.0    0.00      44    68.4
 269   11:00   75.6    18    1.4   176      5.0   905.9    0.00      45    69.3
 269   11:10   75.8    17    1.3    63      4.6   905.9    0.00      82    70.2
 269   11:20   76.5    17    1.6   246      5.3   905.7    0.00      70    71.0
 269   11:30   77.8    14    3.5   352     10.4   905.5    0.00     107    71.5
 269   11:40   78.4    13    4.9     2     11.1   905.5    0.00     165    71.9
 269   11:50   79.4    13    5.8   345     11.8   905.3    0.00     873    72.2
 269   12:00   78.9    13    4.1    19     11.0   905.1    0.00     987    73.0
 269   12:10   79.6    13    3.5   356      7.5   905.1    0.00     982    74.1
 269   12:20   80.4    13    4.9     1     10.7   905.5    0.00     980    75.3
 269   12:30   81.1    13    4.9     3      9.9   905.1    0.00     970    76.5
 269   12:40   81.9    13    4.8   344      9.6   904.6    0.00     963    77.6
 269   12:50   81.7    12    6.3     2     12.6   904.6    0.00     952    78.7
 269   13:00   82.4    13    5.0     8     13.8   904.5    0.00     937    79.6
 269   13:10   82.9    12    4.2   348     10.2   904.0    0.00     923    80.5
 269   13:20   82.7    12    5.5    28     12.6   904.1    0.00     905    81.3
 269   13:30   82.8    11    4.1    15     15.1   904.0    0.00     887    82.1
 269   13:40   83.1    12    5.2     3     11.6   903.7    0.00     865    82.6
 269   13:50   83.5    12    6.9     8     12.0   903.5    0.00     843    83.2
 269   14:00   83.4    12    5.9    18     14.0   903.4    0.00     815    83.7
 269   14:10   84.2    11    5.6   344     11.2   903.5    0.00     796    84.1
 269   14:20   84.4    11    5.2   354     12.6   903.4    0.00     765    84.5
 269   14:30   85.0    12    4.1   350      9.9   903.3    0.00     736    84.9
 269   14:40   85.0    11    3.8     9     10.3   903.2    0.00     701    85.4
 269   14:50   85.4    11    3.9     2      7.7   903.1    0.00     668    85.8
 269   15:00   85.4    11    2.9     0      6.3   902.8    0.00     631    86.2
 269   15:10   86.1    11    2.8   340      6.9   902.7    0.00     603    86.5
 269   15:20   87.6    10    1.5     6      3.4   902.6    0.00     559    86.7
 269   15:30   86.1    11    3.2    68      7.6   902.6    0.00     519    86.9
 269   15:40   86.1    11    1.2    68      5.3   902.5    0.00     482    87.0
 269   15:50   86.0    11    2.5    70      9.3   902.4    0.00     441    87.0
 269   16:00   85.5    11    3.4     6      7.0   902.4    0.00     407    86.8
 269   16:10   85.2    12    3.0     1      6.4   902.3    0.00     369    86.4
 269   16:20   84.5    12    4.5    28      9.0   902.3    0.00     326    85.9
 269   16:30   83.9    12    3.7    14     10.9   902.4    0.00     288    85.2
 269   16:40   83.2    12    4.1   350      9.8   902.3    0.00     252    84.4
 269   16:50   82.3    12    3.8    13      7.7   902.4    0.00     171    83.7
 269   17:00   81.6    13    4.5     9     11.0   902.4    0.00      50    83.0
 269   17:10   81.1    13    4.2     9      8.6   902.5    0.00      27    82.4
 269   17:20   80.4    13    3.7   358      7.5   902.6    0.00      13    81.8
 269   17:30   79.6    13    3.1   352      6.6   902.7    0.00       9    81.2
 269   17:40   79.1    13    3.1     5      7.0   902.7    0.00       6    80.7
 269   17:50   78.8    13    3.0     7      6.7   902.8    0.00       0    80.2
 269   18:00   78.9    13    3.3    21      7.9   902.9    0.00       0    79.6
 269   18:10   79.2    13    3.2    26      9.6   903.0    0.00       0    79.1
 269   18:20   79.0    13    1.7    63      5.5   903.2    0.00       0    78.7
 269   18:30   78.5    13    2.5    51      7.6   903.4    0.00       0    78.3
 269   18:40   78.8    13    3.3    56     10.0   903.6    0.00       0    77.9
 269   18:50   79.2    13    3.9    43     10.2   903.7    0.00       0    77.6
 269   19:00   78.4    13    1.6    42      4.9   903.7    0.00       0    77.2
 269   19:10   77.2    14    1.7    37      4.7   903.8    0.00       0    76.9
 269   19:20   77.1    14    2.8    38      7.1   904.0    0.00       0    76.6
 269   19:30   77.2    14    3.4    52      8.8   904.1    0.00       0    76.3
 269   19:40   76.8    14    3.1    32      6.8   904.3    0.00       0    76.0
 269   19:50   76.3    14    2.9    14      7.7   904.5    0.00       0    75.8
 269   20:00   76.1    14    3.4    23      8.9   904.6    0.00       0    75.5
 269   20:10   76.2    14    3.2    54      8.6   904.7    0.00       0    75.3
 269   20:20   75.7    15    1.9   346      7.1   904.8    0.00       0    75.1
 269   20:30   73.2    17    1.3   251      3.7   904.9    0.00       0    74.8
 269   20:40   72.8    16    2.8     7      8.3   905.0    0.00       0    74.6
 269   20:50   74.2    16    3.2   347      7.9   905.1    0.00       0    74.3
 269   21:00   74.5    15    3.4    25      7.5   905.2    0.00       0    74.0
 269   21:10   74.0    16    2.9     1      6.6   905.3    0.00       0    73.8
 269   21:20   72.0    17    1.2   309      5.6   905.5    0.00       0    73.6
 269   21:30   69.7    20    0.5   283      1.9   905.4    0.00       0    73.4
 269   21:40   68.3    21    1.6   227      5.5   905.4    0.00       0    73.1
 269   21:50   68.5    20    1.2   257      3.8   905.5    0.00       0    72.8
 269   22:00   67.2    21    2.7   302      6.2   905.5    0.00       0    72.6
 269   22:10   69.2    19    3.2   327      8.0   905.3    0.00       0    72.3
 269   22:20   69.1    19    3.0   360      7.5   905.2    0.00       0    72.0
 269   22:30   68.2    20    2.7   276      8.6   905.2    0.00       0    71.8
 269   22:40   66.9    21    2.1   246      4.9   905.2    0.00       0    71.5
 269   22:50   66.2    21    1.3   273      4.1   905.2    0.00       0    71.3
 269   23:00   65.6    23    1.0   195      5.4   905.3    0.00       0    71.1
 269   23:10   64.2    25    1.2   243      3.9   905.3    0.00       0    70.9
 269   23:20   63.5    26    0.6   284      2.8   905.4    0.00       0    70.6
 269   23:30   62.5    27    0.6   196      3.0   905.4    0.00       0    70.4
 269   23:40   62.9    27    1.7   212      4.6   905.5    0.00       0    70.2
 269   23:50   64.9    24    1.3   224      5.0   905.4    0.00       0    69.9
 270    0:00   62.5    28    0.4   190      2.4   905.5    0.00       0    69.7
 270    0:10   62.3    27    0.7   208      2.0   905.5    0.00       0    69.5
 270    0:20   62.9    24    0.3   231      1.4   905.7    0.00       0    69.3
 270    0:30   62.0    26    0.2    94      2.1   905.5    0.00       0    69.1
 270    0:40   60.7    28    0.1   118      0.9   905.4    0.00       0    68.8
 270    0:50   59.2    31    0.1   206      1.2   905.6    0.00       0    68.7
 270    1:00   58.3    31    0.2   330      1.3   905.7    0.00       0    68.5
 270    1:10   57.9    31    0.5    16      1.8   905.7    0.00       0    68.2
 270    1:20   58.2    30    0.4   132      1.5   905.7    0.00       0    68.0
 270    1:30   57.9    30    0.5   235      2.3   906.0    0.00       0    67.8
 270    1:40   57.2    31    1.1    13      2.7   906.1    0.00       0    67.6
 270    1:50   57.8    30    1.6    31      3.7   905.9    0.00       0    67.4
 270    2:00   57.1    32    1.1     2      2.5   906.2    0.00       0    67.2
 270    2:10   55.5    36    0.5    52      1.5   906.1    0.00       0    67.0
 270    2:20   54.2    38    0.5    34      1.6   906.0    0.00       0    66.8
 270    2:30   53.5    39    0.2   304      1.3   905.8    0.00       0    66.6
 270    2:40   52.8    40    0.3    20      1.6   905.6    0.00       0    66.4
 270    2:50   53.2    37    2.6    64      4.1   905.5    0.00       0    66.2
 270    3:00   54.0    34    1.3    40      3.6   905.1    0.00       0    66.0
 270    3:10   54.1    34    0.4    48      1.5   905.2    0.00       0    65.8
 270    3:20   53.5    36    0.4   337      1.5   905.5    0.00       0    65.7
 270    3:30   52.8    40    1.3   358      2.5   905.7    0.00       0    65.5
 270    3:40   52.6    38    0.3   248      1.8   905.8    0.00       0    65.3
 270    3:50   52.1    40    0.6    25      1.7   905.6    0.00       0    65.1
 270    4:00   51.6    41    1.6     8      2.6   905.5    0.00       0    64.9
 270    4:10   52.2    39    1.2    10      2.3   905.5    0.00       0    64.8
 270    4:20   52.6    39    0.8    22      2.3   905.5    0.00       0    64.6
 270    4:30   52.0    41    0.9    15      2.1   905.6    0.00       0    64.4
 270    4:40   51.4    42    0.6   331      2.0   905.6    0.00       0    64.3
 270    4:50   52.1    39    0.9     1      2.9   905.5    0.00       0    64.1
 270    5:00   52.1    40    0.6     3      1.4   905.5    0.00       0    64.0
 270    5:10   51.9    40    1.5    30      2.9   905.6    0.00       0    63.8
 270    5:20   52.4    39    1.4    46      2.7   905.6    0.00       0    63.7
 270    5:30   52.1    40    1.3   346      2.7   905.7    0.00       0    63.6
 270    5:40   52.7    37    1.5    33      2.4   905.7    0.00       0    63.4
 270    5:50   52.3    38    1.9    52      3.7   905.8    0.00       5    63.3
 270    6:00   51.9    40    1.2   353      2.4   905.9    0.00      12    63.2
 270    6:10   51.9    39    0.7   290      2.4   906.0    0.00      14    63.1
 270    6:20   52.2    40    0.7    48      2.2   906.1    0.00      20    63.0
 270    6:30   53.2    38    1.0    30      2.2   906.2    0.00      24    62.9
 270    6:40   55.5    34    1.3   355      2.6   906.3    0.00      27    62.9
 270    6:50   58.1    32    2.4     8      4.1   906.4    0.00      54    63.0
 270    7:00   59.4    32    2.6    16      4.5   906.4    0.00      40    63.2
 270    7:10   61.0    30    2.2    12      4.0   906.4    0.00      39    63.3
 270    7:20   62.7    27    2.7     8      5.0   906.4    0.00      33    63.4
 270    7:30   63.8    26    2.2    31      4.5   906.3    0.00      36    63.5
 270    7:40   64.8    25    2.5    22      4.9   906.3    0.00      30    63.6
 270    7:50   65.8    25    2.4    19      5.3   906.3    0.00      33    63.7

Return to Alamo, Nevada graphs page.


Western Regional Climate Center,wrcc@dri.edu